Time;durP1;ratioP1;P1;durP2;ratioP2;P2;SDS_P1;SDS_P2;PMS_P1;PMS_P2;Temp;Humidity;BMP_temperature;BMP_pressure;BME280_temperature;BME280_humidity;BME280_pressure;Samples;Min_cycle;Max_cycle;Signal;HPM_P1;HPM_P2
2023/06/13 00:00:16;;;;;;;6.13;1.75;;;15.80;76.40;;;14.47;62.69;100002.81;10411047;27;97329;-89
2023/06/13 00:05:21;;;;;;;1.70;1.23;;;15.80;76.70;;;14.39;62.34;99995.78;10392084;27;96567;-89
2023/06/13 00:10:25;;;;;;;4.10;1.83;;;15.70;77.00;;;14.34;62.75;99998.22;10408468;27;96524;-89
2023/06/13 00:15:31;;;;;;;2.80;1.60;;;15.60;77.20;;;14.32;62.43;99992.22;10405770;27;98254;-89
2023/06/13 00:20:34;;;;;;;1.70;1.08;;;15.60;77.20;;;14.26;62.49;99981.50;10421472;27;96607;-89
2023/06/13 00:25:38;;;;;;;3.53;1.42;;;15.50;77.40;;;14.25;62.68;99983.34;10423497;27;96606;-89
2023/06/13 00:30:41;;;;;;;3.67;1.60;;;15.50;77.50;;;14.23;62.90;99990.75;10418085;27;96506;-89
2023/06/13 00:35:45;;;;;;;1.80;1.20;;;15.50;77.50;;;14.23;62.83;99982.72;10404487;27;96550;-89
2023/06/13 00:40:50;;;;;;;2.15;1.30;;;15.50;77.50;;;14.27;63.88;99980.47;10422177;27;96539;-89
2023/06/13 00:45:54;;;;;;;4.07;1.25;;;15.50;77.60;;;14.27;63.48;99972.44;10415294;27;98652;-88
2023/06/13 00:50:59;;;;;;;2.10;1.30;;;15.60;77.70;;;14.27;63.48;99965.25;10403514;27;96683;-88
2023/06/13 00:56:04;;;;;;;2.03;1.10;;;15.60;77.60;;;14.27;62.90;99959.09;10422911;27;98623;-88
2023/06/13 01:01:09;;;;;;;2.30;1.20;;;15.60;77.50;;;14.25;62.68;99958.47;10417249;27;98023;-88
2023/06/13 01:06:13;;;;;;;1.80;1.05;;;15.50;77.70;;;14.25;61.75;99945.09;10400701;27;97246;-88
2023/06/13 01:11:43;;;;;;;2.50;1.33;;;15.50;77.60;;;14.23;61.95;99941.81;10405961;27;96662;-88
2023/06/13 01:16:54;;;;;;;7.05;1.67;;;15.50;77.60;;;14.18;62.15;99935.19;10409832;27;98068;-88
2023/06/13 01:21:58;;;;;;;2.00;1.23;;;15.40;77.90;;;14.16;62.76;99931.91;10419636;27;96526;-88
2023/06/13 01:27:02;;;;;;;2.72;1.15;;;15.40;78.10;;;14.14;63.17;99928.59;10438622;27;96565;-87
2023/06/13 01:32:07;;;;;;;4.05;1.27;;;15.40;78.30;;;14.14;63.62;99927.78;10421768;27;96641;-89
2023/06/13 01:37:11;;;;;;;2.47;1.10;;;15.40;78.10;;;14.09;63.50;99917.69;10420745;27;98183;-89
2023/06/13 01:42:14;;;;;;;2.97;1.60;;;15.40;78.40;;;14.07;62.99;99918.91;10404944;27;98260;-88
2023/06/13 01:47:34;;;;;;;2.83;1.52;;;15.30;78.30;;;14.03;63.76;99921.13;10436016;27;96839;-88
2023/06/13 01:53:02;;;;;;;4.27;1.53;;;15.30;78.80;;;13.97;63.74;99919.25;10416479;27;96757;-88
2023/06/13 01:58:15;;;;;;;2.65;1.38;;;15.20;78.90;;;13.90;63.57;99918.38;10396480;28;99694;-88
2023/06/13 02:03:19;;;;;;;2.78;1.58;;;15.20;78.70;;;13.86;62.89;99925.16;10421763;27;97240;-88
2023/06/13 02:08:23;;;;;;;2.75;1.13;;;15.10;78.70;;;13.82;63.47;99919.38;10397131;27;98447;-89
2023/06/13 02:13:26;;;;;;;5.18;1.42;;;15.10;79.00;;;13.78;62.75;99920.78;10384752;28;96507;-88
2023/06/13 02:18:31;;;;;;;3.25;1.20;;;15.00;78.70;;;13.72;63.04;99910.88;10429906;27;96688;-88
2023/06/13 02:23:34;;;;;;;2.70;1.57;;;15.00;78.90;;;13.62;62.97;99913.91;10384248;27;97583;-88
2023/06/13 02:28:37;;;;;;;2.33;1.50;;;14.90;78.80;;;13.55;62.89;99915.69;10425518;27;96674;-88
2023/06/13 02:33:40;;;;;;;4.07;1.67;;;14.80;79.10;;;13.46;63.79;99905.34;10409637;27;97064;-89
2023/06/13 02:38:44;;;;;;;7.38;1.30;;;14.70;79.40;;;13.37;64.72;99905.50;10424861;27;97395;-88
2023/06/13 02:43:47;;;;;;;3.90;1.37;;;14.60;79.80;;;13.28;65.04;99897.81;10429525;27;96465;-88
2023/06/13 02:48:50;;;;;;;3.65;1.50;;;14.50;80.40;;;13.15;66.15;99887.00;10423214;27;98470;-88
2023/06/13 02:53:53;;;;;;;4.55;1.50;;;14.40;80.90;;;12.99;67.90;99896.91;10401121;27;98034;-88
2023/06/13 02:58:57;;;;;;;12.77;2.37;;;14.30;82.00;;;12.85;68.05;99892.47;10410100;27;96613;-89
2023/06/13 03:04:00;;;;;;;5.27;1.80;;;14.10;82.60;;;12.75;68.72;99900.78;10422838;27;98590;-88
2023/06/13 03:09:04;;;;;;;5.83;1.70;;;14.00;82.90;;;12.67;68.63;99905.41;10413297;27;97498;-88
2023/06/13 03:14:07;;;;;;;3.10;1.40;;;13.90;83.10;;;12.53;68.56;99913.25;10440755;27;96616;-88
2023/06/13 03:19:10;;;;;;;3.67;1.60;;;13.80;83.50;;;12.45;68.77;99902.69;10406524;27;97351;-88
2023/06/13 03:24:14;;;;;;;2.27;1.33;;;13.70;84.00;;;12.43;69.26;99901.25;10425375;27;96570;-88
2023/06/13 03:29:17;;;;;;;2.43;1.40;;;13.70;84.40;;;12.44;70.35;99902.88;10410489;27;96972;-89
2023/06/13 03:34:25;;;;;;;3.97;1.97;;;13.70;84.90;;;12.29;70.76;99895.75;10408489;27;97501;-88
2023/06/13 03:39:28;;;;;;;2.47;1.33;;;13.60;85.30;;;12.26;71.78;99898.78;10394672;27;98965;-88
2023/06/13 03:44:31;;;;;;;1.77;1.23;;;13.50;85.70;;;12.22;70.93;99908.16;10420846;27;96951;-88
2023/06/13 03:49:34;;;;;;;3.60;1.20;;;13.50;85.70;;;12.19;70.61;99907.72;10403228;27;99012;-88
2023/06/13 03:54:37;;;;;;;2.13;1.23;;;13.50;85.70;;;12.19;71.39;99903.22;10425931;27;96438;-88
2023/06/13 03:59:40;;;;;;;2.50;1.30;;;13.50;85.80;;;12.20;70.79;99912.03;10425358;27;98643;-88
2023/06/13 04:04:46;;;;;;;1.97;1.40;;;13.50;86.00;;;12.14;72.76;99910.09;10392598;27;97685;-88
2023/06/13 04:09:49;;;;;;;4.37;1.80;;;13.40;87.00;;;12.12;72.31;99912.94;10416468;27;96794;-88
2023/06/13 04:14:56;;;;;;;5.20;1.67;;;13.40;87.40;;;12.11;73.06;99915.78;10414590;27;96471;-88
2023/06/13 04:20:03;;;;;;;3.43;1.60;;;13.40;88.00;;;12.14;72.21;99923.41;10404847;27;96906;-88
2023/06/13 04:25:06;;;;;;;2.90;1.30;;;13.30;87.80;;;12.20;71.25;99920.84;10406120;27;97322;-88
2023/06/13 04:30:10;;;;;;;2.17;1.40;;;13.40;87.70;;;12.38;69.41;99916.97;10389192;27;96503;-88
2023/06/13 04:35:16;;;;;;;2.70;1.50;;;13.60;86.60;;;12.65;68.53;99916.25;10399636;27;97458;-89
2023/06/13 04:40:21;;;;;;;3.80;1.23;;;13.80;86.10;;;12.87;67.76;99914.44;10434774;27;96573;-88
2023/06/13 04:45:24;;;;;;;3.37;1.23;;;14.10;85.50;;;13.15;67.83;99919.03;10402513;27;96598;-88
2023/06/13 04:50:31;;;;;;;2.73;1.43;;;14.40;85.60;;;13.40;65.14;99917.63;10407697;27;97868;-88
2023/06/13 04:55:37;;;;;;;2.40;1.30;;;14.60;84.40;;;13.78;64.02;99925.28;10445595;27;96905;-87
2023/06/13 05:00:40;;;;;;;4.63;1.45;;;15.00;83.50;;;14.09;58.80;99928.38;10422095;27;96546;-87
2023/06/13 05:05:45;;;;;;;3.35;1.85;;;15.30;80.50;;;14.30;55.81;99913.25;10419595;27;96554;-88
2023/06/13 05:10:48;;;;;;;2.78;1.30;;;15.60;78.40;;;14.56;55.42;99908.03;10438909;27;97245;-86
2023/06/13 05:15:51;;;;;;;1.30;1.00;;;15.70;77.40;;;14.84;53.80;99894.53;10413196;27;96592;-87
2023/06/13 05:20:54;;;;;;;2.42;1.50;;;16.00;74.70;;;15.06;54.12;99897.88;10434285;27;98673;-87
2023/06/13 05:25:57;;;;;;;7.32;2.00;;;16.20;74.60;;;15.25;52.83;99896.25;10422568;27;96766;-87
2023/06/13 05:31:01;;;;;;;5.22;1.65;;;16.50;73.80;;;15.41;52.60;99886.94;10391784;27;97526;-87
2023/06/13 05:36:04;;;;;;;4.20;1.33;;;16.60;73.30;;;15.61;54.44;99895.00;10438947;27;96681;-86
2023/06/13 05:41:07;;;;;;;2.47;1.70;;;16.80;74.10;;;15.79;51.82;99904.06;10417547;27;97168;-87
2023/06/13 05:46:10;;;;;;;4.28;1.33;;;17.10;72.40;;;15.91;51.27;99895.38;10414209;27;96778;-88
2023/06/13 05:51:13;;;;;;;3.10;1.20;;;17.20;72.20;;;16.05;50.78;99899.66;10418237;27;96682;-87
2023/06/13 05:56:16;;;;;;;9.15;1.50;;;17.30;72.20;;;16.16;50.02;99899.00;10434512;27;96743;-88
2023/06/13 06:01:20;;;;;;;2.45;1.30;;;17.40;71.00;;;16.30;49.57;99907.81;10430046;27;96587;-88
2023/06/13 06:06:24;;;;;;;2.95;1.33;;;17.50;70.40;;;16.37;51.17;99907.78;10435074;27;96893;-89
2023/06/13 06:11:27;;;;;;;2.90;1.35;;;17.60;71.00;;;16.48;50.20;99912.50;10442523;27;98724;-90
2023/06/13 06:16:30;;;;;;;3.30;1.80;;;17.70;71.30;;;16.50;50.81;99910.44;10421863;27;97099;-88
2023/06/13 06:21:34;;;;;;;4.35;1.40;;;17.70;70.80;;;16.63;49.59;99905.00;10424276;27;97995;-87
2023/06/13 06:26:37;;;;;;;2.58;1.50;;;17.80;70.00;;;16.66;48.13;99903.75;10420704;27;97435;-88
2023/06/13 06:31:40;;;;;;;2.45;1.30;;;17.90;69.10;;;16.75;48.94;99906.00;10443377;27;98440;-88
2023/06/13 06:36:43;;;;;;;2.03;1.40;;;17.90;69.20;;;16.85;48.55;99909.06;10425187;27;98156;-89
2023/06/13 06:41:47;;;;;;;3.33;1.40;;;18.00;68.80;;;16.82;47.59;99898.72;10412736;27;96389;-90
2023/06/13 06:46:50;;;;;;;2.78;1.30;;;18.00;68.40;;;16.88;48.41;99885.50;10440247;27;98134;-88
2023/06/13 06:51:52;;;;;;;3.30;1.45;;;18.10;68.50;;;17.01;47.71;99891.59;10426467;27;96567;-86
2023/06/13 06:56:57;;;;;;;2.90;1.50;;;18.20;68.00;;;17.13;47.87;99878.28;10400467;27;97434;-88
2023/06/13 07:02:00;;;;;;;4.75;1.30;;;18.30;68.20;;;17.37;47.22;99879.34;10437878;27;96838;-88
2023/06/13 07:07:03;;;;;;;2.35;1.25;;;18.60;67.90;;;17.60;47.00;99884.91;10421731;27;98503;-87
2023/06/13 07:12:07;;;;;;;2.45;1.50;;;18.80;67.50;;;17.64;46.03;99885.31;10426704;27;97195;-88
2023/06/13 07:17:10;;;;;;;2.53;1.23;;;18.90;66.70;;;17.67;46.92;99874.09;10408835;27;96492;-89
2023/06/13 07:22:13;;;;;;;4.35;1.42;;;19.00;66.90;;;17.78;47.08;99873.41;10408436;27;96645;-87
2023/06/13 07:27:17;;;;;;;1.88;1.27;;;19.00;67.10;;;18.00;47.74;99867.59;10410198;27;96509;-87
2023/06/13 07:32:21;;;;;;;3.63;2.28;;;19.20;67.30;;;18.33;46.50;99862.63;10434695;27;96805;-88
2023/06/13 07:37:24;;;;;;;2.17;1.23;;;19.40;67.20;;;19.04;44.26;99852.94;10398313;27;96737;-88
2023/06/13 07:42:27;;;;;;;2.72;1.48;;;19.70;66.10;;;19.25;42.97;99843.47;10427369;27;96803;-88
2023/06/13 07:47:30;;;;;;;2.78;1.17;;;19.80;65.00;;;19.38;43.16;99837.88;10426666;27;96573;-88
2023/06/13 07:52:34;;;;;;;3.55;1.50;;;20.00;64.80;;;19.40;41.83;99840.34;10406808;27;96650;-87
2023/06/13 07:57:37;;;;;;;3.22;1.80;;;20.20;63.80;;;19.33;43.75;99835.06;10443590;27;96474;-88
2023/06/13 08:03:00;;;;;;;2.08;1.20;;;20.20;63.90;;;19.70;42.58;99843.75;10409467;27;97012;-87
2023/06/13 08:08:05;;;;;;;3.15;1.20;;;20.50;63.60;;;19.92;40.77;99829.66;10425136;27;96431;-87
2023/06/13 08:13:08;;;;;;;3.10;1.60;;;20.80;62.60;;;19.99;41.91;99835.72;10453661;27;96803;-88
2023/06/13 08:18:11;;;;;;;3.08;1.50;;;20.90;62.20;;;19.93;41.27;99837.50;10406917;27;98052;-88
2023/06/13 08:23:14;;;;;;;3.47;1.70;;;20.90;61.30;;;19.88;39.43;99832.00;10423783;27;96671;-87
2023/06/13 08:28:18;;;;;;;3.50;1.35;;;20.90;59.80;;;19.75;40.51;99829.56;10442254;27;96442;-88
2023/06/13 08:33:21;;;;;;;2.70;1.70;;;20.80;59.90;;;19.89;40.26;99833.63;10438283;27;98287;-89
2023/06/13 08:38:24;;;;;;;3.17;1.90;;;20.90;60.20;;;20.00;39.83;99829.28;10423022;27;97327;-84
2023/06/13 08:43:48;;;;;;;6.55;4.15;;;21.00;59.70;;;20.07;38.92;99831.84;10413041;27;96642;-86
2023/06/13 08:48:51;;;;;;;19.48;12.55;;;21.10;58.60;;;20.15;38.45;99815.25;10390284;27;96617;-86
2023/06/13 08:54:02;;;;;;;126.85;75.05;;;21.30;58.40;;;20.18;38.66;99830.97;10458026;27;96514;-87
2023/06/13 08:59:17;;;;;;;166.38;87.03;;;21.30;57.90;;;20.16;39.86;99825.03;10424207;27;96461;-88
2023/06/13 09:04:23;;;;;;;34.35;18.10;;;21.30;59.00;;;20.25;39.67;99818.16;10409035;27;96428;-88
2023/06/13 09:09:28;;;;;;;14.90;7.38;;;21.30;59.10;;;20.46;36.87;99817.53;10423727;27;97702;-87
2023/06/13 09:14:32;;;;;;;5.47;3.00;;;21.60;57.80;;;20.49;38.41;99808.94;10423806;27;97886;-88
2023/06/13 09:19:35;;;;;;;2.70;1.52;;;21.60;57.60;;;20.56;34.92;99809.59;10424954;27;96521;-88
2023/06/13 09:24:39;;;;;;;3.65;1.38;;;21.70;54.70;;;20.90;36.61;99816.94;10453842;27;96671;-88
2023/06/13 09:29:42;;;;;;;2.75;1.70;;;22.10;55.20;;;21.25;36.11;99816.69;10454740;27;97007;-88
2023/06/13 09:34:49;;;;;;;22.90;16.40;;;22.40;54.90;;;21.35;38.86;99803.34;10469561;27;96529;-88
2023/06/13 09:39:53;;;;;;;7.30;4.18;;;22.50;56.70;;;21.61;39.13;99818.88;10441559;27;96516;-87
2023/06/13 09:45:15;;;;;;;2.83;1.45;;;22.60;57.40;;;21.71;37.54;99799.28;10451893;27;96416;-87
2023/06/13 09:50:21;;;;;;;3.63;1.42;;;22.80;55.90;;;21.59;37.56;99799.41;10422244;27;96675;-87
2023/06/13 09:55:24;;;;;;;4.75;1.52;;;22.80;56.10;;;21.50;37.18;99806.28;10437823;27;96472;-88
2023/06/13 10:00:28;;;;;;;2.63;1.35;;;22.70;56.20;;;21.37;38.58;99793.94;10423824;27;96647;-88
2023/06/13 10:05:31;;;;;;;2.35;1.30;;;22.60;57.10;;;21.35;36.33;99798.78;10454209;27;96394;-88
2023/06/13 10:10:34;;;;;;;2.25;1.10;;;22.60;56.00;;;21.43;37.51;99805.66;10436468;27;96526;-86
2023/06/13 10:15:47;;;;;;;1.40;1.10;;;22.70;56.30;;;21.32;37.64;99798.44;10418863;27;96569;-88
2023/06/13 10:20:54;;;;;;;2.08;1.20;;;22.60;56.30;;;21.08;38.96;99795.91;10437359;27;96585;-87
2023/06/13 10:26:08;;;;;;;1.92;1.27;;;22.30;57.30;;;20.84;39.12;99797.13;10453976;27;96570;-88
2023/06/13 10:31:56;;;;;;;1.58;1.13;;;22.00;57.40;;;20.65;38.16;99793.84;10435209;27;97741;-88
2023/06/13 10:37:33;;;;;;;4.25;1.23;;;21.70;56.50;;;20.32;38.52;99795.38;10411385;27;96538;-88
2023/06/13 10:42:40;;;;;;;2.80;1.10;;;21.40;57.00;;;20.21;40.08;99787.31;10464066;27;97036;-88
2023/06/13 10:47:43;;;;;;;3.22;1.23;;;21.30;58.00;;;20.21;40.91;99787.31;10445440;27;96481;-87
2023/06/13 10:52:48;;;;;;;1.52;1.10;;;21.30;58.30;;;20.27;41.59;99775.56;10429246;27;96453;-88
2023/06/13 10:57:56;;;;;;;2.58;1.05;;;21.40;59.40;;;20.79;41.50;99770.84;10396767;27;97230;-89
2023/06/13 11:03:12;;;;;;;3.42;1.63;;;21.90;59.00;;;21.25;39.13;99751.84;10450756;27;96471;-87
2023/06/13 11:08:21;;;;;;;3.35;1.60;;;22.40;57.30;;;21.27;38.33;99763.22;10455659;27;96845;-86
2023/06/13 11:13:26;;;;;;;2.42;1.23;;;22.50;56.70;;;21.12;38.92;99761.13;10429897;27;96395;-89
2023/06/13 11:18:30;;;;;;;4.50;1.48;;;22.40;57.00;;;20.98;39.09;99768.72;10458872;27;96573;-87
2023/06/13 11:23:33;;;;;;;2.00;1.20;;;22.10;57.00;;;20.68;39.47;99765.53;10410758;27;96484;-86
2023/06/13 11:28:36;;;;;;;3.40;1.20;;;21.80;57.40;;;20.66;41.14;99756.88;10424513;27;96565;-87
2023/06/13 11:33:47;;;;;;;2.35;1.35;;;21.70;58.50;;;20.83;40.51;99744.19;10414698;27;98577;-86
2023/06/13 11:39:15;;;;;;;3.92;1.23;;;22.00;58.40;;;20.98;38.57;99738.19;10407847;27;96663;-88
2023/06/13 11:44:19;;;;;;;3.42;1.60;;;22.10;57.20;;;21.28;37.87;99738.63;10408105;27;96539;-87
2023/06/13 11:49:22;;;;;;;2.97;1.42;;;22.40;56.20;;;21.52;37.42;99739.25;10409072;27;97643;-86
2023/06/13 11:54:30;;;;;;;10.98;3.72;;;22.70;55.40;;;21.66;38.01;99741.63;10411952;27;96535;-87
2023/06/13 11:59:34;;;;;;;2.90;1.40;;;22.80;55.70;;;21.82;38.46;99738.81;10419964;27;97018;-87
2023/06/13 12:04:39;;;;;;;2.00;1.33;;;22.90;56.40;;;22.06;36.87;99735.84;10433813;27;97578;-85
2023/06/13 12:09:45;;;;;;;3.22;1.92;;;23.30;55.00;;;21.91;35.82;99731.91;10440404;27;96568;-85
2023/06/13 12:14:54;;;;;;;4.95;1.92;;;23.20;53.90;;;21.68;35.73;99717.84;10423672;27;97376;-86
2023/06/13 12:20:11;;;;;;;3.85;1.30;;;22.90;53.80;;;21.63;37.63;99722.09;10422371;27;96664;-86
2023/06/13 12:25:15;;;;;;;2.22;1.40;;;22.80;55.00;;;21.55;37.60;99719.03;10421768;27;98362;-86
2023/06/13 12:30:19;;;;;;;1.85;1.30;;;22.80;55.00;;;21.44;37.21;99714.56;10434198;27;97016;-86
2023/06/13 12:35:29;;;;;;;2.28;1.30;;;22.70;55.30;;;21.30;37.47;99719.53;10406979;27;96565;-85
2023/06/13 12:40:34;;;;;;;2.78;1.25;;;22.60;55.00;;;21.21;38.92;99715.56;10375031;28;96525;-86
2023/06/13 12:45:37;;;;;;;2.53;1.60;;;22.50;55.70;;;21.57;40.46;99706.06;10424823;27;97051;-85
2023/06/13 12:50:40;;;;;;;1.98;1.40;;;23.00;56.80;;;21.89;40.49;99712.41;10424622;27;96469;-85
2023/06/13 12:55:44;;;;;;;2.00;1.48;;;23.50;57.10;;;22.16;36.97;99696.19;10418342;27;98352;-85
2023/06/13 13:00:50;;;;;;;2.85;1.92;;;23.90;54.70;;;22.15;38.01;99701.88;10398161;27;96514;-86
2023/06/13 13:05:54;;;;;;;2.50;1.60;;;23.70;55.20;;;21.98;39.27;99710.06;10423482;27;96651;-85
2023/06/13 13:10:57;;;;;;;2.80;1.77;;;23.30;56.50;;;21.70;39.09;99704.88;10406429;27;96948;-84
2023/06/13 13:16:00;;;;;;;3.05;1.50;;;22.90;56.60;;;21.40;39.20;99698.00;10409216;27;96622;-85
2023/06/13 13:21:03;;;;;;;3.53;1.70;;;22.60;57.30;;;21.28;39.67;99694.59;10407385;27;96738;-84
2023/06/13 13:26:07;;;;;;;2.75;1.40;;;22.50;57.20;;;21.13;39.82;99703.31;10440560;27;97525;-85
2023/06/13 13:31:10;;;;;;;2.78;1.50;;;22.30;57.20;;;21.27;40.22;99693.75;10413173;27;96573;-85
2023/06/13 13:36:13;;;;;;;3.20;1.40;;;22.40;57.70;;;21.72;39.78;99698.16;10402995;27;96574;-85
2023/06/13 13:41:17;;;;;;;3.92;1.60;;;22.80;57.70;;;22.36;38.51;99689.34;10409629;27;96819;-86
2023/06/13 13:46:20;;;;;;;3.10;1.25;;;23.50;56.80;;;22.93;37.20;99678.69;10396403;27;98516;-85
2023/06/13 13:51:34;;;;;;;2.75;1.58;;;24.10;55.90;;;23.14;36.67;99674.19;10432930;27;96869;-85
2023/06/13 13:56:37;;;;;;;3.63;1.55;;;24.20;55.00;;;23.44;36.88;99667.28;10405420;27;96540;-86
2023/06/13 14:01:40;;;;;;;2.53;1.50;;;24.50;54.90;;;23.80;34.03;99675.56;10434037;27;97673;-86
2023/06/13 14:06:45;;;;;;;4.20;1.60;;;24.80;52.80;;;24.02;35.86;99657.19;10388403;27;96534;-85
2023/06/13 14:11:48;;;;;;;2.80;1.50;;;25.00;54.30;;;24.18;33.79;99653.41;10425913;27;97058;-85
2023/06/13 14:16:52;;;;;;;3.45;1.50;;;25.20;52.70;;;23.84;32.86;99658.50;10445044;27;97243;-86
2023/06/13 14:21:55;;;;;;;3.75;1.23;;;24.90;51.20;;;23.59;34.88;99653.78;10438738;27;96566;-86
2023/06/13 14:26:58;;;;;;;2.53;1.55;;;24.70;52.60;;;23.65;36.03;99657.38;10412737;27;96399;-85
2023/06/13 14:32:02;;;;;;;4.97;1.60;;;24.80;53.90;;;23.67;34.28;99655.19;10422725;27;97638;-85
2023/06/13 14:37:06;;;;;;;3.53;1.40;;;24.90;53.10;;;23.49;35.29;99657.28;10424347;27;98472;-86
2023/06/13 14:42:10;;;;;;;3.45;1.67;;;24.80;53.50;;;23.08;35.53;99644.63;10418100;27;96688;-86
2023/06/13 14:47:15;;;;;;;3.80;1.33;;;24.40;53.40;;;22.77;35.33;99649.84;10418459;27;99993;-84
2023/06/13 14:52:18;;;;;;;5.88;1.63;;;24.10;54.00;;;22.58;36.60;99645.94;10427234;27;96589;-87
2023/06/13 14:57:21;;;;;;;3.72;1.27;;;23.90;53.50;;;22.65;35.88;99638.41;10412000;27;96606;-86
2023/06/13 15:02:27;;;;;;;3.55;1.55;;;24.00;54.50;;;22.98;37.56;99631.88;10416777;27;96639;-85
2023/06/13 15:07:31;;;;;;;2.20;1.30;;;24.40;54.40;;;23.40;36.07;99629.06;10407311;27;97470;-87
2023/06/13 15:12:34;;;;;;;1.65;1.38;;;25.00;54.00;;;23.44;36.54;99629.31;10424129;27;97052;-85
2023/06/13 15:17:37;;;;;;;3.85;1.35;;;25.10;53.40;;;23.16;36.83;99623.28;10410734;27;97572;-86
2023/06/13 15:22:40;;;;;;;1.80;1.33;;;24.80;53.60;;;22.96;36.59;99609.63;10425325;27;99077;-87
2023/06/13 15:27:43;;;;;;;3.40;1.48;;;24.50;53.60;;;23.07;37.55;99605.06;10411372;27;96605;-86
2023/06/13 15:32:46;;;;;;;2.70;1.30;;;24.60;54.50;;;23.37;36.12;99604.38;10423074;27;97995;-86
2023/06/13 15:37:49;;;;;;;3.28;1.75;;;25.20;54.20;;;23.83;34.78;99609.94;10424946;27;96760;-86
2023/06/13 15:42:53;;;;;;;2.40;1.30;;;25.90;54.30;;;24.15;33.62;99609.69;10411632;27;97401;-87
2023/06/13 15:47:56;;;;;;;3.05;1.27;;;26.30;52.20;;;24.71;33.74;99621.34;10425304;27;96628;-87
2023/06/13 15:53:00;;;;;;;2.03;1.25;;;26.80;52.00;;;25.13;33.51;99617.47;10427669;27;97014;-88
2023/06/13 15:58:03;;;;;;;2.08;1.00;;;27.10;51.40;;;25.46;32.80;99620.56;10438240;27;96666;-87
2023/06/13 16:03:07;;;;;;;4.00;1.70;;;27.50;51.60;;;25.63;31.69;99621.81;10364778;28;98641;-87
2023/06/13 16:08:10;;;;;;;3.55;1.40;;;27.40;49.70;;;25.51;31.81;99618.63;10369816;28;98419;-87
2023/06/13 16:13:13;;;;;;;2.45;1.50;;;27.00;49.60;;;25.22;30.02;99632.09;10343320;28;96549;-87
2023/06/13 16:18:16;;;;;;;1.77;1.10;;;26.70;48.90;;;24.91;31.15;99638.69;10356927;28;96695;-86
2023/06/13 16:23:20;;;;;;;2.10;1.17;;;26.30;49.20;;;24.47;31.16;99642.00;10372679;28;96880;-87
2023/06/13 16:28:23;;;;;;;3.45;1.30;;;25.80;48.90;;;24.08;31.84;99645.25;10361380;27;98257;-86
2023/06/13 16:33:27;;;;;;;2.28;1.42;;;25.40;50.10;;;23.95;33.08;99646.59;10356009;28;98236;-87
2023/06/13 16:38:30;;;;;;;3.50;1.30;;;25.20;50.70;;;23.70;31.62;99644.63;10353343;28;96809;-87
2023/06/13 16:43:34;;;;;;;3.42;1.65;;;24.90;49.90;;;23.58;33.73;99651.38;10345997;28;96846;-86
2023/06/13 16:48:37;;;;;;;2.00;1.50;;;24.70;50.60;;;23.28;34.05;99652.06;10387261;28;97744;-88
2023/06/13 16:53:40;;;;;;;3.55;1.65;;;24.40;51.00;;;23.19;34.94;99652.53;10352159;28;97200;-87
2023/06/13 16:58:43;;;;;;;5.55;2.22;;;24.30;51.60;;;23.31;35.40;99655.03;10359709;28;97331;-87
2023/06/13 17:03:46;;;;;;;1.98;1.40;;;24.40;52.00;;;23.29;34.77;99659.91;10339360;28;97415;-87
2023/06/13 17:08:50;;;;;;;2.75;1.55;;;24.40;51.50;;;23.29;35.13;99656.41;10374072;28;97704;-87
2023/06/13 17:13:53;;;;;;;4.00;1.60;;;24.40;51.90;;;23.41;34.98;99663.22;10365815;27;97136;-88
2023/06/13 17:18:56;;;;;;;5.35;1.83;;;24.60;52.00;;;23.33;35.65;99668.31;10355665;28;97247;-88
2023/06/13 17:24:00;;;;;;;6.00;1.63;;;24.60;52.40;;;23.02;36.67;99665.47;10375405;28;97044;-87
2023/06/13 17:29:07;;;;;;;3.08;1.70;;;24.20;53.30;;;22.56;37.76;99664.34;10352430;28;96572;-86
2023/06/13 17:34:11;;;;;;;3.05;1.60;;;23.70;54.20;;;21.98;39.68;99674.88;10371716;28;96542;-87
2023/06/13 17:39:15;;;;;;;5.25;1.98;;;23.10;55.80;;;21.46;42.23;99686.19;10375471;28;97161;-89
2023/06/13 17:44:18;;;;;;;2.90;1.67;;;22.60;57.90;;;21.09;44.66;99694.88;10395419;28;97158;-87
2023/06/13 17:49:21;;;;;;;4.20;1.75;;;22.20;60.10;;;20.70;45.19;99687.84;10382265;28;97167;-87
2023/06/13 17:54:24;;;;;;;5.55;2.03;;;21.80;60.90;;;20.41;45.09;99693.28;10381160;27;96781;-86
2023/06/13 17:59:30;;;;;;;2.85;1.80;;;21.50;61.10;;;20.15;45.96;99694.72;10385564;28;96882;-87
2023/06/13 18:04:33;;;;;;;5.07;2.05;;;21.20;61.50;;;19.85;47.38;99692.28;10406843;27;96621;-87
2023/06/13 18:09:36;;;;;;;3.65;1.70;;;21.00;62.50;;;19.53;49.47;99700.78;10392960;27;96589;-87
2023/06/13 18:14:39;;;;;;;4.03;1.98;;;20.70;64.10;;;19.25;50.59;99698.00;10364271;27;97164;-88
2023/06/13 18:19:42;;;;;;;2.70;1.67;;;20.50;65.00;;;19.01;51.33;99704.47;10384258;27;98215;-88
2023/06/13 18:24:45;;;;;;;3.85;2.20;;;20.20;65.60;;;18.70;51.76;99707.28;10390510;27;98178;-89
2023/06/13 18:29:48;;;;;;;2.72;1.70;;;19.90;66.40;;;18.43;52.78;99712.25;10377872;27;97281;-87
2023/06/13 18:34:53;;;;;;;4.20;2.17;;;19.60;67.30;;;18.17;53.65;99723.41;10385840;28;96647;-86
2023/06/13 18:39:56;;;;;;;3.70;2.28;;;19.40;68.20;;;17.91;54.29;99720.03;10344664;27;97170;-87
2023/06/13 18:44:59;;;;;;;4.50;2.50;;;19.10;69.00;;;17.75;54.23;99736.81;10373863;28;97951;-85
2023/06/13 18:50:05;;;;;;;4.15;2.38;;;18.90;69.20;;;17.60;54.55;99733.63;10385736;28;98668;-84
2023/06/13 18:55:09;;;;;;;4.68;2.50;;;18.70;69.30;;;17.48;55.46;99749.69;10396663;27;97115;-86
2023/06/13 19:00:14;;;;;;;6.35;2.60;;;18.60;69.90;;;17.35;56.01;99750.66;10384643;28;99841;-87
2023/06/13 19:05:17;;;;;;;3.72;2.05;;;18.50;70.30;;;17.20;55.75;99752.84;10364597;28;96704;-86
2023/06/13 19:10:21;;;;;;;5.30;2.58;;;18.30;70.40;;;17.06;56.45;99752.16;10378091;28;97482;-85
2023/06/13 19:15:24;;;;;;;3.78;2.08;;;18.20;70.90;;;16.93;57.06;99759.53;10366812;28;96615;-85
2023/06/13 19:20:27;;;;;;;4.13;1.90;;;18.10;71.40;;;16.79;57.50;99758.81;10382023;28;96863;-85
2023/06/13 19:25:31;;;;;;;7.60;2.60;;;17.90;71.70;;;16.68;57.83;99763.00;10375521;27;98796;-85
2023/06/13 19:30:34;;;;;;;2.70;1.88;;;17.80;72.00;;;16.54;57.83;99767.63;10397448;27;98574;-85
2023/06/13 19:35:40;;;;;;;3.10;1.90;;;17.70;72.20;;;16.42;58.32;99766.66;10396174;28;96492;-85
2023/06/13 19:40:43;;;;;;;6.82;2.15;;;17.60;72.40;;;16.28;58.58;99765.13;10374994;27;98564;-86
2023/06/13 19:45:47;;;;;;;5.22;2.00;;;17.50;72.70;;;16.16;59.54;99774.88;10393883;28;97245;-85
2023/06/13 19:50:50;;;;;;;5.15;1.98;;;17.30;73.00;;;16.06;60.55;99776.16;10330895;28;96476;-85
2023/06/13 19:55:57;;;;;;;2.97;2.00;;;17.30;73.40;;;16.01;61.60;99775.16;10389838;27;98290;-85
2023/06/13 20:01:00;;;;;;;6.82;4.30;;;17.20;74.00;;;15.95;62.82;99776.00;10390136;27;97480;-85
2023/06/13 20:06:05;;;;;;;9.48;4.43;;;17.20;75.20;;;15.85;64.82;99778.34;10368982;27;97342;-85
2023/06/13 20:11:08;;;;;;;7.57;3.17;;;17.10;76.40;;;15.77;65.57;99782.91;10395499;28;97555;-85
2023/06/13 20:16:11;;;;;;;5.95;3.70;;;17.00;77.10;;;15.65;66.75;99783.75;10375565;27;97379;-85
2023/06/13 20:21:15;;;;;;;5.35;3.10;;;16.90;77.60;;;15.51;66.98;99775.72;10366342;27;98252;-85
2023/06/13 20:26:19;;;;;;;4.57;3.03;;;16.70;78.00;;;15.36;67.63;99780.50;10390279;28;96542;-87
2023/06/13 20:31:22;;;;;;;8.50;3.45;;;16.60;78.50;;;15.21;68.77;99790.59;10366141;28;98017;-86
2023/06/13 20:36:26;;;;;;;8.43;3.58;;;16.40;79.50;;;15.04;69.60;99792.88;10360376;28;96679;-86
2023/06/13 20:41:29;;;;;;;4.07;2.35;;;16.20;80.20;;;14.85;70.14;99802.56;10365505;27;96723;-85
2023/06/13 20:46:36;;;;;;;4.55;2.60;;;16.00;81.60;;;14.63;70.16;99791.25;10405358;27;97468;-86
2023/06/13 20:51:45;;;;;;;7.72;3.33;;;15.80;81.80;;;14.40;71.15;99790.75;10350904;28;96512;-86
2023/06/13 20:56:54;;;;;;;4.63;2.92;;;15.60;82.40;;;14.24;72.28;99791.13;10379522;27;96535;-85
2023/06/13 21:01:57;;;;;;;4.15;2.25;;;15.40;83.00;;;14.16;73.41;99790.28;10386621;27;96823;-85
2023/06/13 21:07:00;;;;;;;6.95;2.65;;;15.40;83.50;;;14.08;72.66;99803.81;10413664;27;96642;-85